sensor_id;sensor_type;location;lat;lon;timestamp;temperature;humidity
69543;SHT31;56762;49.494;11.768;2023-09-19T00:01:42;16.82;87.90
69543;SHT31;56762;49.494;11.768;2023-09-19T00:04:11;16.84;89.34
69543;SHT31;56762;49.494;11.768;2023-09-19T00:06:39;16.88;89.26
69543;SHT31;56762;49.494;11.768;2023-09-19T00:09:07;16.88;89.13
69543;SHT31;56762;49.494;11.768;2023-09-19T00:11:37;16.91;89.31
69543;SHT31;56762;49.494;11.768;2023-09-19T00:14:06;16.89;89.06
69543;SHT31;56762;49.494;11.768;2023-09-19T00:16:35;16.89;89.24
69543;SHT31;56762;49.494;11.768;2023-09-19T00:19:05;16.91;88.13
69543;SHT31;56762;49.494;11.768;2023-09-19T00:21:35;16.87;88.04
69543;SHT31;56762;49.494;11.768;2023-09-19T00:24:05;16.78;88.65
69543;SHT31;56762;49.494;11.768;2023-09-19T00:26:33;16.75;88.36
69543;SHT31;56762;49.494;11.768;2023-09-19T00:29:01;16.74;89.58
69543;SHT31;56762;49.494;11.768;2023-09-19T00:31:34;16.74;89.76
69543;SHT31;56762;49.494;11.768;2023-09-19T00:34:05;16.67;88.26
69543;SHT31;56762;49.494;11.768;2023-09-19T00:36:35;16.58;89.10
69543;SHT31;56762;49.494;11.768;2023-09-19T00:39:05;16.58;88.88
69543;SHT31;56762;49.494;11.768;2023-09-19T00:41:35;16.67;90.11
69543;SHT31;56762;49.494;11.768;2023-09-19T00:44:03;16.75;89.70
69543;SHT31;56762;49.494;11.768;2023-09-19T00:46:32;16.72;88.48
69543;SHT31;56762;49.494;11.768;2023-09-19T00:49:00;16.67;89.44
69543;SHT31;56762;49.494;11.768;2023-09-19T00:51:29;16.72;89.74
69543;SHT31;56762;49.494;11.768;2023-09-19T00:53:59;16.79;89.54
69543;SHT31;56762;49.494;11.768;2023-09-19T00:56:27;16.87;89.11
69543;SHT31;56762;49.494;11.768;2023-09-19T00:58:56;16.85;88.90
69543;SHT31;56762;49.494;11.768;2023-09-19T01:01:24;16.84;88.08
69543;SHT31;56762;49.494;11.768;2023-09-19T01:03:52;16.88;87.85
69543;SHT31;56762;49.494;11.768;2023-09-19T01:06:21;16.91;88.81
69543;SHT31;56762;49.494;11.768;2023-09-19T01:08:50;16.84;88.94
69543;SHT31;56762;49.494;11.768;2023-09-19T01:11:30;16.84;89.14
69543;SHT31;56762;49.494;11.768;2023-09-19T01:14:13;16.78;88.25
69543;SHT31;56762;49.494;11.768;2023-09-19T01:16:49;16.77;89.39
69543;SHT31;56762;49.494;11.768;2023-09-19T01:19:47;16.63;88.18
69543;SHT31;56762;49.494;11.768;2023-09-19T01:22:28;16.58;88.37
69543;SHT31;56762;49.494;11.768;2023-09-19T01:25:28;16.64;89.73
69543;SHT31;56762;49.494;11.768;2023-09-19T01:28:19;16.63;88.68
69543;SHT31;56762;49.494;11.768;2023-09-19T01:30:52;16.65;89.79
69543;SHT31;56762;49.494;11.768;2023-09-19T01:33:24;16.65;89.75
69543;SHT31;56762;49.494;11.768;2023-09-19T01:35:53;16.64;89.51
69543;SHT31;56762;49.494;11.768;2023-09-19T01:38:24;16.68;89.29
69543;SHT31;56762;49.494;11.768;2023-09-19T01:40:57;16.65;88.38
69543;SHT31;56762;49.494;11.768;2023-09-19T01:43:34;16.65;88.21
69543;SHT31;56762;49.494;11.768;2023-09-19T01:46:09;16.64;88.59
69543;SHT31;56762;49.494;11.768;2023-09-19T01:48:42;16.64;87.54
69543;SHT31;56762;49.494;11.768;2023-09-19T01:51:18;16.56;88.64
69543;SHT31;56762;49.494;11.768;2023-09-19T01:53:53;16.50;88.92
69543;SHT31;56762;49.494;11.768;2023-09-19T01:56:28;16.41;87.49
69543;SHT31;56762;49.494;11.768;2023-09-19T01:59:07;16.27;89.60
69543;SHT31;56762;49.494;11.768;2023-09-19T02:01:37;16.37;90.22
69543;SHT31;56762;49.494;11.768;2023-09-19T02:04:07;16.41;90.37
69543;SHT31;56762;49.494;11.768;2023-09-19T02:06:39;16.46;90.01
69543;SHT31;56762;49.494;11.768;2023-09-19T02:09:07;16.57;89.49
69543;SHT31;56762;49.494;11.768;2023-09-19T02:11:35;16.43;87.52
69543;SHT31;56762;49.494;11.768;2023-09-19T02:14:04;16.44;88.42
69543;SHT31;56762;49.494;11.768;2023-09-19T02:16:35;16.43;89.95
69543;SHT31;56762;49.494;11.768;2023-09-19T02:19:05;16.53;90.07
69543;SHT31;56762;49.494;11.768;2023-09-19T02:21:34;16.51;89.86
69543;SHT31;56762;49.494;11.768;2023-09-19T02:24:02;16.54;88.93
69543;SHT31;56762;49.494;11.768;2023-09-19T02:26:30;16.54;88.32
69543;SHT31;56762;49.494;11.768;2023-09-19T02:28:59;16.41;89.01
69543;SHT31;56762;49.494;11.768;2023-09-19T02:31:27;16.46;88.73
69543;SHT31;56762;49.494;11.768;2023-09-19T02:33:56;16.46;89.79
69543;SHT31;56762;49.494;11.768;2023-09-19T02:36:25;16.51;89.85
69543;SHT31;56762;49.494;11.768;2023-09-19T02:38:53;16.48;89.34
69543;SHT31;56762;49.494;11.768;2023-09-19T02:41:21;16.54;89.17
69543;SHT31;56762;49.494;11.768;2023-09-19T02:43:49;16.56;88.58
69543;SHT31;56762;49.494;11.768;2023-09-19T02:46:17;16.56;87.95
69543;SHT31;56762;49.494;11.768;2023-09-19T02:48:46;16.57;89.41
69543;SHT31;56762;49.494;11.768;2023-09-19T02:51:14;16.64;88.75
69543;SHT31;56762;49.494;11.768;2023-09-19T02:53:43;16.61;88.07
69543;SHT31;56762;49.494;11.768;2023-09-19T02:56:14;16.51;87.94
69543;SHT31;56762;49.494;11.768;2023-09-19T02:58:42;16.44;88.16
69543;SHT31;56762;49.494;11.768;2023-09-19T03:01:10;16.34;88.57
69543;SHT31;56762;49.494;11.768;2023-09-19T03:03:39;16.34;89.01
69543;SHT31;56762;49.494;11.768;2023-09-19T03:06:07;16.33;89.91
69543;SHT31;56762;49.494;11.768;2023-09-19T03:08:35;16.37;89.01
69543;SHT31;56762;49.494;11.768;2023-09-19T03:11:10;16.41;90.13
69543;SHT31;56762;49.494;11.768;2023-09-19T03:13:39;16.46;89.51
69543;SHT31;56762;49.494;11.768;2023-09-19T03:16:09;16.53;89.76
69543;SHT31;56762;49.494;11.768;2023-09-19T03:18:37;16.63;89.47
69543;SHT31;56762;49.494;11.768;2023-09-19T03:21:05;16.70;89.21
69543;SHT31;56762;49.494;11.768;2023-09-19T03:23:33;16.72;88.84
69543;SHT31;56762;49.494;11.768;2023-09-19T03:26:01;16.74;88.93
69543;SHT31;56762;49.494;11.768;2023-09-19T03:28:33;16.72;88.95
69543;SHT31;56762;49.494;11.768;2023-09-19T03:31:02;16.72;88.35
69543;SHT31;56762;49.494;11.768;2023-09-19T03:33:30;16.65;88.60
69543;SHT31;56762;49.494;11.768;2023-09-19T03:36:00;16.65;87.94
69543;SHT31;56762;49.494;11.768;2023-09-19T03:38:27;16.68;89.01
69543;SHT31;56762;49.494;11.768;2023-09-19T03:40:56;16.75;89.01
69543;SHT31;56762;49.494;11.768;2023-09-19T03:43:24;16.74;87.72
69543;SHT31;56762;49.494;11.768;2023-09-19T03:45:53;16.71;88.29
69543;SHT31;56762;49.494;11.768;2023-09-19T03:48:22;16.81;88.91
69543;SHT31;56762;49.494;11.768;2023-09-19T03:50:50;16.77;88.69
69543;SHT31;56762;49.494;11.768;2023-09-19T03:53:19;16.78;88.83
69543;SHT31;56762;49.494;11.768;2023-09-19T03:55:47;16.82;88.56
69543;SHT31;56762;49.494;11.768;2023-09-19T03:58:15;16.88;88.31
69543;SHT31;56762;49.494;11.768;2023-09-19T04:00:43;16.87;88.31
69543;SHT31;56762;49.494;11.768;2023-09-19T04:03:12;16.87;88.36
69543;SHT31;56762;49.494;11.768;2023-09-19T04:05:46;16.89;88.23
69543;SHT31;56762;49.494;11.768;2023-09-19T04:08:14;16.87;88.42
69543;SHT31;56762;49.494;11.768;2023-09-19T04:10:42;16.92;88.43
69543;SHT31;56762;49.494;11.768;2023-09-19T04:13:11;16.92;88.28
69543;SHT31;56762;49.494;11.768;2023-09-19T04:15:39;16.88;88.03
69543;SHT31;56762;49.494;11.768;2023-09-19T04:18:08;16.89;88.36
69543;SHT31;56762;49.494;11.768;2023-09-19T04:20:37;16.87;88.15
69543;SHT31;56762;49.494;11.768;2023-09-19T04:23:05;16.88;88.34
69543;SHT31;56762;49.494;11.768;2023-09-19T04:25:33;16.87;88.22
69543;SHT31;56762;49.494;11.768;2023-09-19T04:28:01;16.87;88.59
69543;SHT31;56762;49.494;11.768;2023-09-19T04:30:31;16.85;87.93
69543;SHT31;56762;49.494;11.768;2023-09-19T04:32:58;16.85;88.37
69543;SHT31;56762;49.494;11.768;2023-09-19T04:35:32;16.87;88.22
69543;SHT31;56762;49.494;11.768;2023-09-19T04:38:02;16.91;88.35
69543;SHT31;56762;49.494;11.768;2023-09-19T04:40:32;16.88;88.23
69543;SHT31;56762;49.494;11.768;2023-09-19T04:43:00;16.89;88.31
69543;SHT31;56762;49.494;11.768;2023-09-19T04:45:29;16.91;88.37
69543;SHT31;56762;49.494;11.768;2023-09-19T04:47:57;16.94;87.94
69543;SHT31;56762;49.494;11.768;2023-09-19T04:50:25;16.96;87.98
69543;SHT31;56762;49.494;11.768;2023-09-19T04:52:54;16.98;87.99
69543;SHT31;56762;49.494;11.768;2023-09-19T04:55:23;16.96;88.02
69543;SHT31;56762;49.494;11.768;2023-09-19T04:57:51;16.99;87.91
69543;SHT31;56762;49.494;11.768;2023-09-19T05:00:21;16.95;88.14
69543;SHT31;56762;49.494;11.768;2023-09-19T05:02:52;16.94;88.11
69543;SHT31;56762;49.494;11.768;2023-09-19T05:05:20;16.92;88.14
69543;SHT31;56762;49.494;11.768;2023-09-19T05:07:49;16.95;88.26
69543;SHT31;56762;49.494;11.768;2023-09-19T05:10:17;16.95;88.33
69543;SHT31;56762;49.494;11.768;2023-09-19T05:12:47;16.94;88.13
69543;SHT31;56762;49.494;11.768;2023-09-19T05:15:18;16.95;88.23
69543;SHT31;56762;49.494;11.768;2023-09-19T05:17:50;16.99;88.17
69543;SHT31;56762;49.494;11.768;2023-09-19T05:20:23;17.02;87.78
69543;SHT31;56762;49.494;11.768;2023-09-19T05:23:00;17.05;87.48
69543;SHT31;56762;49.494;11.768;2023-09-19T05:25:29;17.07;87.46
69543;SHT31;56762;49.494;11.768;2023-09-19T05:27:59;17.07;87.66
69543;SHT31;56762;49.494;11.768;2023-09-19T05:30:30;17.08;87.78
69543;SHT31;56762;49.494;11.768;2023-09-19T05:32:58;17.05;87.03
69543;SHT31;56762;49.494;11.768;2023-09-19T05:35:26;17.05;87.59
69543;SHT31;56762;49.494;11.768;2023-09-19T05:37:54;17.02;87.70
69543;SHT31;56762;49.494;11.768;2023-09-19T05:40:22;17.02;87.67
69543;SHT31;56762;49.494;11.768;2023-09-19T05:42:50;17.05;87.12
69543;SHT31;56762;49.494;11.768;2023-09-19T05:45:20;17.08;87.45
69543;SHT31;56762;49.494;11.768;2023-09-19T05:47:49;17.05;87.17
69543;SHT31;56762;49.494;11.768;2023-09-19T05:50:18;17.09;87.51
69543;SHT31;56762;49.494;11.768;2023-09-19T05:52:52;17.08;87.40
69543;SHT31;56762;49.494;11.768;2023-09-19T05:55:21;17.15;87.25
69543;SHT31;56762;49.494;11.768;2023-09-19T05:57:52;17.09;86.47
69543;SHT31;56762;49.494;11.768;2023-09-19T06:00:22;17.15;86.81
69543;SHT31;56762;49.494;11.768;2023-09-19T06:02:51;17.15;86.72
69543;SHT31;56762;49.494;11.768;2023-09-19T06:05:19;17.18;86.98
69543;SHT31;56762;49.494;11.768;2023-09-19T06:07:47;17.16;87.02
69543;SHT31;56762;49.494;11.768;2023-09-19T06:10:15;17.15;86.84
69543;SHT31;56762;49.494;11.768;2023-09-19T06:12:44;17.20;86.95
69543;SHT31;56762;49.494;11.768;2023-09-19T06:15:13;17.25;86.59
69543;SHT31;56762;49.494;11.768;2023-09-19T06:17:46;17.28;86.85
69543;SHT31;56762;49.494;11.768;2023-09-19T06:20:14;17.30;86.67
69543;SHT31;56762;49.494;11.768;2023-09-19T06:22:45;17.35;86.35
69543;SHT31;56762;49.494;11.768;2023-09-19T06:25:14;17.36;86.19
69543;SHT31;56762;49.494;11.768;2023-09-19T06:27:47;17.42;86.22
69543;SHT31;56762;49.494;11.768;2023-09-19T06:30:15;17.38;86.32
69543;SHT31;56762;49.494;11.768;2023-09-19T06:32:45;17.39;86.29
69543;SHT31;56762;49.494;11.768;2023-09-19T06:35:15;17.40;86.19
69543;SHT31;56762;49.494;11.768;2023-09-19T06:37:43;17.39;86.24
69543;SHT31;56762;49.494;11.768;2023-09-19T06:40:12;17.42;86.12
69543;SHT31;56762;49.494;11.768;2023-09-19T06:42:42;17.42;85.91
69543;SHT31;56762;49.494;11.768;2023-09-19T06:45:11;17.42;86.10
69543;SHT31;56762;49.494;11.768;2023-09-19T06:47:40;17.40;86.05
69543;SHT31;56762;49.494;11.768;2023-09-19T06:50:27;17.38;85.88
69543;SHT31;56762;49.494;11.768;2023-09-19T06:52:57;17.38;86.16
69543;SHT31;56762;49.494;11.768;2023-09-19T06:55:27;17.38;86.10
69543;SHT31;56762;49.494;11.768;2023-09-19T06:57:59;17.38;85.94
69543;SHT31;56762;49.494;11.768;2023-09-19T07:00:27;17.42;86.03
69543;SHT31;56762;49.494;11.768;2023-09-19T07:02:58;17.42;86.09
69543;SHT31;56762;49.494;11.768;2023-09-19T07:05:29;17.43;85.98
69543;SHT31;56762;49.494;11.768;2023-09-19T07:07:59;17.45;85.98
69543;SHT31;56762;49.494;11.768;2023-09-19T07:10:28;17.46;85.98
69543;SHT31;56762;49.494;11.768;2023-09-19T07:12:57;17.49;85.77
69543;SHT31;56762;49.494;11.768;2023-09-19T07:15:26;17.51;85.49
69543;SHT31;56762;49.494;11.768;2023-09-19T07:17:54;17.53;85.59
69543;SHT31;56762;49.494;11.768;2023-09-19T07:20:24;17.54;84.62
69543;SHT31;56762;49.494;11.768;2023-09-19T07:22:54;17.59;85.52
69543;SHT31;56762;49.494;11.768;2023-09-19T07:25:22;17.57;85.39
69543;SHT31;56762;49.494;11.768;2023-09-19T07:27:50;17.59;85.42
69543;SHT31;56762;49.494;11.768;2023-09-19T07:30:18;17.57;84.22
69543;SHT31;56762;49.494;11.768;2023-09-19T07:32:47;17.59;84.89
69543;SHT31;56762;49.494;11.768;2023-09-19T07:35:15;17.60;85.16
69543;SHT31;56762;49.494;11.768;2023-09-19T07:37:45;17.60;84.99
69543;SHT31;56762;49.494;11.768;2023-09-19T07:40:19;17.63;85.01
69543;SHT31;56762;49.494;11.768;2023-09-19T07:42:48;17.67;84.91
69543;SHT31;56762;49.494;11.768;2023-09-19T07:45:17;17.70;84.66
69543;SHT31;56762;49.494;11.768;2023-09-19T07:47:45;17.71;83.98
69543;SHT31;56762;49.494;11.768;2023-09-19T07:50:14;17.74;84.53
69543;SHT31;56762;49.494;11.768;2023-09-19T07:52:45;17.76;82.88
69543;SHT31;56762;49.494;11.768;2023-09-19T07:55:13;17.79;83.87
69543;SHT31;56762;49.494;11.768;2023-09-19T07:57:44;17.83;83.27
69543;SHT31;56762;49.494;11.768;2023-09-19T08:00:13;17.86;81.86
69543;SHT31;56762;49.494;11.768;2023-09-19T08:02:42;17.87;81.15
69543;SHT31;56762;49.494;11.768;2023-09-19T08:05:12;17.93;81.18
69543;SHT31;56762;49.494;11.768;2023-09-19T08:07:44;17.93;82.01
69543;SHT31;56762;49.494;11.768;2023-09-19T08:10:15;17.97;79.90
69543;SHT31;56762;49.494;11.768;2023-09-19T08:12:48;17.98;79.32
69543;SHT31;56762;49.494;11.768;2023-09-19T08:15:23;18.04;79.35
69543;SHT31;56762;49.494;11.768;2023-09-19T08:17:51;18.04;78.94
69543;SHT31;56762;49.494;11.768;2023-09-19T08:20:19;18.08;79.19
69543;SHT31;56762;49.494;11.768;2023-09-19T08:22:47;18.11;78.41
69543;SHT31;56762;49.494;11.768;2023-09-19T08:25:16;18.12;78.61
69543;SHT31;56762;49.494;11.768;2023-09-19T08:27:47;18.14;76.81
69543;SHT31;56762;49.494;11.768;2023-09-19T08:30:16;18.15;79.70
69543;SHT31;56762;49.494;11.768;2023-09-19T08:32:47;18.17;79.04
69543;SHT31;56762;49.494;11.768;2023-09-19T08:35:14;18.18;79.51
69543;SHT31;56762;49.494;11.768;2023-09-19T08:37:43;18.21;79.68
69543;SHT31;56762;49.494;11.768;2023-09-19T08:40:12;18.21;78.18
69543;SHT31;56762;49.494;11.768;2023-09-19T08:42:51;18.24;79.03
69543;SHT31;56762;49.494;11.768;2023-09-19T08:45:20;18.24;78.95
69543;SHT31;56762;49.494;11.768;2023-09-19T08:47:54;18.21;74.24
69543;SHT31;56762;49.494;11.768;2023-09-19T08:50:27;18.25;76.44
69543;SHT31;56762;49.494;11.768;2023-09-19T08:52:56;18.29;77.44
69543;SHT31;56762;49.494;11.768;2023-09-19T08:55:28;18.34;77.01
69543;SHT31;56762;49.494;11.768;2023-09-19T08:58:00;18.35;76.06
69543;SHT31;56762;49.494;11.768;2023-09-19T09:00:28;18.37;75.61
69543;SHT31;56762;49.494;11.768;2023-09-19T09:02:57;18.39;75.83
69543;SHT31;56762;49.494;11.768;2023-09-19T09:05:25;18.41;75.42
69543;SHT31;56762;49.494;11.768;2023-09-19T09:07:55;18.44;77.31
69543;SHT31;56762;49.494;11.768;2023-09-19T09:10:24;18.39;78.34
69543;SHT31;56762;49.494;11.768;2023-09-19T09:12:53;18.39;74.24
69543;SHT31;56762;49.494;11.768;2023-09-19T09:15:23;18.37;76.40
69543;SHT31;56762;49.494;11.768;2023-09-19T09:17:51;18.38;76.98
69543;SHT31;56762;49.494;11.768;2023-09-19T09:20:20;18.38;76.51
69543;SHT31;56762;49.494;11.768;2023-09-19T09:22:51;18.35;73.26
69543;SHT31;56762;49.494;11.768;2023-09-19T09:25:21;18.34;74.95
69543;SHT31;56762;49.494;11.768;2023-09-19T09:28:00;18.31;76.06
69543;SHT31;56762;49.494;11.768;2023-09-19T09:30:36;18.32;75.78
69543;SHT31;56762;49.494;11.768;2023-09-19T09:33:09;18.31;73.53
69543;SHT31;56762;49.494;11.768;2023-09-19T09:35:47;18.32;74.15
69543;SHT31;56762;49.494;11.768;2023-09-19T09:38:19;18.34;75.36
69543;SHT31;56762;49.494;11.768;2023-09-19T09:40:49;18.34;73.54
69543;SHT31;56762;49.494;11.768;2023-09-19T09:43:29;18.34;74.79
69543;SHT31;56762;49.494;11.768;2023-09-19T09:46:13;18.34;74.28
69543;SHT31;56762;49.494;11.768;2023-09-19T09:49:00;18.35;75.28
69543;SHT31;56762;49.494;11.768;2023-09-19T09:51:46;18.35;73.63
69543;SHT31;56762;49.494;11.768;2023-09-19T09:54:25;18.31;73.22
69543;SHT31;56762;49.494;11.768;2023-09-19T09:57:01;18.29;72.38
69543;SHT31;56762;49.494;11.768;2023-09-19T09:59:45;18.27;71.36
69543;SHT31;56762;49.494;11.768;2023-09-19T10:02:15;18.25;73.93
69543;SHT31;56762;49.494;11.768;2023-09-19T10:04:50;18.25;74.42
69543;SHT31;56762;49.494;11.768;2023-09-19T10:07:41;18.22;73.84
69543;SHT31;56762;49.494;11.768;2023-09-19T10:10:29;18.21;74.23
69543;SHT31;56762;49.494;11.768;2023-09-19T10:13:12;18.21;75.74
69543;SHT31;56762;49.494;11.768;2023-09-19T10:15:43;18.22;75.77
69543;SHT31;56762;49.494;11.768;2023-09-19T10:18:20;18.22;74.94
69543;SHT31;56762;49.494;11.768;2023-09-19T10:20:49;18.22;74.69
69543;SHT31;56762;49.494;11.768;2023-09-19T10:23:18;18.27;76.00
69543;SHT31;56762;49.494;11.768;2023-09-19T10:25:50;18.25;73.52
69543;SHT31;56762;49.494;11.768;2023-09-19T10:28:20;18.27;75.54
69543;SHT31;56762;49.494;11.768;2023-09-19T10:30:50;18.28;76.68
69543;SHT31;56762;49.494;11.768;2023-09-19T10:33:21;18.27;74.56
69543;SHT31;56762;49.494;11.768;2023-09-19T10:35:50;18.28;76.35
69543;SHT31;56762;49.494;11.768;2023-09-19T10:38:21;18.27;76.98
69543;SHT31;56762;49.494;11.768;2023-09-19T10:40:51;18.27;75.46
69543;SHT31;56762;49.494;11.768;2023-09-19T10:43:21;18.24;75.88
69543;SHT31;56762;49.494;11.768;2023-09-19T10:45:50;18.25;76.11
69543;SHT31;56762;49.494;11.768;2023-09-19T10:48:21;18.28;75.25
69543;SHT31;56762;49.494;11.768;2023-09-19T10:51:07;18.25;76.74
69543;SHT31;56762;49.494;11.768;2023-09-19T10:53:45;18.27;76.68
69543;SHT31;56762;49.494;11.768;2023-09-19T10:56:19;18.28;72.77
69543;SHT31;56762;49.494;11.768;2023-09-19T10:58:49;18.31;74.60
69543;SHT31;56762;49.494;11.768;2023-09-19T11:01:18;18.34;75.98
69543;SHT31;56762;49.494;11.768;2023-09-19T11:03:48;18.34;73.99
69543;SHT31;56762;49.494;11.768;2023-09-19T11:06:39;18.35;74.64
69543;SHT31;56762;49.494;11.768;2023-09-19T11:09:08;18.32;76.21
69543;SHT31;56762;49.494;11.768;2023-09-19T11:11:50;18.28;74.22
69543;SHT31;56762;49.494;11.768;2023-09-19T11:14:30;18.31;74.03
69543;SHT31;56762;49.494;11.768;2023-09-19T11:20:24;18.34;75.88
69543;SHT31;56762;49.494;11.768;2023-09-19T11:23:17;18.37;73.19
69543;SHT31;56762;49.494;11.768;2023-09-19T11:25:49;18.42;76.80
69543;SHT31;56762;49.494;11.768;2023-09-19T11:28:28;18.41;75.27
69543;SHT31;56762;49.494;11.768;2023-09-19T11:30:57;18.45;77.78
69543;SHT31;56762;49.494;11.768;2023-09-19T11:33:26;18.42;75.54
69543;SHT31;56762;49.494;11.768;2023-09-19T11:36:03;18.44;71.85
69543;SHT31;56762;49.494;11.768;2023-09-19T11:38:57;18.44;75.12
69543;SHT31;56762;49.494;11.768;2023-09-19T11:41:40;18.41;74.67
69543;SHT31;56762;49.494;11.768;2023-09-19T11:44:33;18.39;75.37
69543;SHT31;56762;49.494;11.768;2023-09-19T11:47:04;18.42;76.60
69543;SHT31;56762;49.494;11.768;2023-09-19T11:49:33;18.41;71.34
69543;SHT31;56762;49.494;11.768;2023-09-19T11:52:05;18.41;75.08
69543;SHT31;56762;49.494;11.768;2023-09-19T11:54:35;18.44;69.83
69543;SHT31;56762;49.494;11.768;2023-09-19T11:57:07;18.49;75.53
69543;SHT31;56762;49.494;11.768;2023-09-19T11:59:38;18.52;73.23
69543;SHT31;56762;49.494;11.768;2023-09-19T12:02:07;18.58;74.06
69543;SHT31;56762;49.494;11.768;2023-09-19T12:04:38;18.65;74.31
69543;SHT31;56762;49.494;11.768;2023-09-19T12:07:11;18.69;74.25
69543;SHT31;56762;49.494;11.768;2023-09-19T12:09:45;18.72;74.14
69543;SHT31;56762;49.494;11.768;2023-09-19T12:12:19;18.75;73.49
69543;SHT31;56762;49.494;11.768;2023-09-19T12:14:47;18.75;69.05
69543;SHT31;56762;49.494;11.768;2023-09-19T12:17:16;18.80;70.45
69543;SHT31;56762;49.494;11.768;2023-09-19T12:19:49;18.86;67.69
69543;SHT31;56762;49.494;11.768;2023-09-19T12:22:19;18.89;68.42
69543;SHT31;56762;49.494;11.768;2023-09-19T12:24:48;18.93;67.59
69543;SHT31;56762;49.494;11.768;2023-09-19T12:27:17;18.93;71.23
69543;SHT31;56762;49.494;11.768;2023-09-19T12:29:46;18.92;70.20
69543;SHT31;56762;49.494;11.768;2023-09-19T12:32:16;18.86;66.68
69543;SHT31;56762;49.494;11.768;2023-09-19T12:34:55;18.90;74.69
69543;SHT31;56762;49.494;11.768;2023-09-19T12:37:25;18.77;74.26
69543;SHT31;56762;49.494;11.768;2023-09-19T12:40:04;18.72;70.43
69543;SHT31;56762;49.494;11.768;2023-09-19T12:42:45;18.70;73.61
69543;SHT31;56762;49.494;11.768;2023-09-19T12:45:14;18.69;74.79
69543;SHT31;56762;49.494;11.768;2023-09-19T12:51:03;18.62;72.89
69543;SHT31;56762;49.494;11.768;2023-09-19T12:53:36;18.59;70.45
69543;SHT31;56762;49.494;11.768;2023-09-19T12:56:08;18.60;71.98
69543;SHT31;56762;49.494;11.768;2023-09-19T12:58:48;18.58;74.83
69543;SHT31;56762;49.494;11.768;2023-09-19T13:01:16;18.58;72.06
69543;SHT31;56762;49.494;11.768;2023-09-19T13:03:45;18.58;72.25
69543;SHT31;56762;49.494;11.768;2023-09-19T13:06:13;18.59;74.46
69543;SHT31;56762;49.494;11.768;2023-09-19T13:08:44;18.60;75.44
69543;SHT31;56762;49.494;11.768;2023-09-19T13:11:21;18.63;74.46
69543;SHT31;56762;49.494;11.768;2023-09-19T13:13:51;18.63;72.24
69543;SHT31;56762;49.494;11.768;2023-09-19T13:16:21;18.66;69.64
69543;SHT31;56762;49.494;11.768;2023-09-19T13:18:52;18.66;65.93
69543;SHT31;56762;49.494;11.768;2023-09-19T13:21:29;18.70;70.30
69543;SHT31;56762;49.494;11.768;2023-09-19T13:24:21;18.66;69.62
69543;SHT31;56762;49.494;11.768;2023-09-19T13:26:50;18.63;71.15
69543;SHT31;56762;49.494;11.768;2023-09-19T13:29:18;18.62;72.46
69543;SHT31;56762;49.494;11.768;2023-09-19T13:31:46;18.60;74.76
69543;SHT31;56762;49.494;11.768;2023-09-19T13:34:15;18.56;74.77
69543;SHT31;56762;49.494;11.768;2023-09-19T13:36:44;18.52;72.53
69543;SHT31;56762;49.494;11.768;2023-09-19T13:39:13;18.48;72.03
69543;SHT31;56762;49.494;11.768;2023-09-19T13:41:45;18.44;74.02
69543;SHT31;56762;49.494;11.768;2023-09-19T13:44:14;18.44;73.36
69543;SHT31;56762;49.494;11.768;2023-09-19T13:46:43;18.47;75.64
69543;SHT31;56762;49.494;11.768;2023-09-19T13:49:13;18.44;71.35
69543;SHT31;56762;49.494;11.768;2023-09-19T13:51:43;18.49;75.06
69543;SHT31;56762;49.494;11.768;2023-09-19T13:54:11;18.48;74.03
69543;SHT31;56762;49.494;11.768;2023-09-19T13:56:41;18.52;75.24
69543;SHT31;56762;49.494;11.768;2023-09-19T13:59:10;18.47;72.72
69543;SHT31;56762;49.494;11.768;2023-09-19T14:01:38;18.48;70.39
69543;SHT31;56762;49.494;11.768;2023-09-19T14:04:06;18.49;75.86
69543;SHT31;56762;49.494;11.768;2023-09-19T14:06:34;18.47;70.38
69543;SHT31;56762;49.494;11.768;2023-09-19T14:09:04;18.49;74.41
69543;SHT31;56762;49.494;11.768;2023-09-19T14:11:31;18.48;72.15
69543;SHT31;56762;49.494;11.768;2023-09-19T14:14:00;18.51;74.66
69543;SHT31;56762;49.494;11.768;2023-09-19T14:16:29;18.48;75.35
69543;SHT31;56762;49.494;11.768;2023-09-19T14:18:58;18.49;75.88
69543;SHT31;56762;49.494;11.768;2023-09-19T14:21:26;18.44;71.51
69543;SHT31;56762;49.494;11.768;2023-09-19T14:23:54;18.47;73.70
69543;SHT31;56762;49.494;11.768;2023-09-19T14:26:22;18.49;72.70
69543;SHT31;56762;49.494;11.768;2023-09-19T14:28:50;18.53;74.57
69543;SHT31;56762;49.494;11.768;2023-09-19T14:31:18;18.55;70.00
69543;SHT31;56762;49.494;11.768;2023-09-19T14:33:53;18.53;75.45
69543;SHT31;56762;49.494;11.768;2023-09-19T14:36:21;18.53;73.79
69543;SHT31;56762;49.494;11.768;2023-09-19T14:38:52;18.52;74.00
69543;SHT31;56762;49.494;11.768;2023-09-19T14:41:21;18.52;71.79
69543;SHT31;56762;49.494;11.768;2023-09-19T14:43:50;18.52;75.25
69543;SHT31;56762;49.494;11.768;2023-09-19T14:46:17;18.52;72.33
69543;SHT31;56762;49.494;11.768;2023-09-19T14:48:47;18.52;72.54
69543;SHT31;56762;49.494;11.768;2023-09-19T14:51:15;18.52;76.33
69543;SHT31;56762;49.494;11.768;2023-09-19T14:53:45;18.51;70.82
69543;SHT31;56762;49.494;11.768;2023-09-19T14:56:13;18.55;75.19
69543;SHT31;56762;49.494;11.768;2023-09-19T14:58:45;18.53;74.45
69543;SHT31;56762;49.494;11.768;2023-09-19T15:01:14;18.53;72.45
69543;SHT31;56762;49.494;11.768;2023-09-19T15:03:42;18.58;70.10
69543;SHT31;56762;49.494;11.768;2023-09-19T15:06:12;18.59;70.71
69543;SHT31;56762;49.494;11.768;2023-09-19T15:08:41;18.59;71.45
69543;SHT31;56762;49.494;11.768;2023-09-19T15:11:10;18.58;68.12
69543;SHT31;56762;49.494;11.768;2023-09-19T15:13:39;18.59;72.95
69543;SHT31;56762;49.494;11.768;2023-09-19T15:16:07;18.59;70.14
69543;SHT31;56762;49.494;11.768;2023-09-19T15:18:37;18.59;71.79
69543;SHT31;56762;49.494;11.768;2023-09-19T15:21:06;18.59;70.17
69543;SHT31;56762;49.494;11.768;2023-09-19T15:23:38;18.59;71.24
69543;SHT31;56762;49.494;11.768;2023-09-19T15:26:07;18.56;72.16
69543;SHT31;56762;49.494;11.768;2023-09-19T15:28:35;18.58;70.70
69543;SHT31;56762;49.494;11.768;2023-09-19T15:31:04;18.56;68.42
69543;SHT31;56762;49.494;11.768;2023-09-19T15:33:34;18.56;70.88
69543;SHT31;56762;49.494;11.768;2023-09-19T15:36:02;18.52;70.57
69543;SHT31;56762;49.494;11.768;2023-09-19T15:38:32;18.55;70.52
69543;SHT31;56762;49.494;11.768;2023-09-19T15:41:20;18.52;73.13
69543;SHT31;56762;49.494;11.768;2023-09-19T15:43:48;18.51;70.03
69543;SHT31;56762;49.494;11.768;2023-09-19T15:46:16;18.52;67.33